Time;durP1;ratioP1;P1;durP2;ratioP2;P2;SDS_P1;SDS_P2;PMS_P1;PMS_P2;Temp;Humidity;BMP_temperature;BMP_pressure;BME280_temperature;BME280_humidity;BME280_pressure;Samples;Min_cycle;Max_cycle;Signal;HPM_P1;HPM_P2
2023/12/18 00:00:07;;;;;;;57.05;27.55;;;;;;;4.20;100.00;100935.29;1712039;83;21120;-73
2023/12/18 00:02:35;;;;;;;50.48;25.90;;;;;;;4.20;100.00;100926.30;1712193;84;21206;-72
2023/12/18 00:05:04;;;;;;;64.92;31.37;;;;;;;4.21;100.00;100923.94;1778494;80;21131;-73
2023/12/18 00:07:33;;;;;;;54.05;25.62;;;;;;;4.19;100.00;100924.58;1712029;84;21653;-73
2023/12/18 00:10:01;;;;;;;51.75;25.88;;;;;;;4.18;100.00;100928.30;1778380;81;21562;-72
2023/12/18 00:12:30;;;;;;;58.35;28.57;;;;;;;4.17;100.00;100917.95;1778331;80;21554;-72
2023/12/18 00:14:58;;;;;;;60.92;30.15;;;;;;;4.17;100.00;100908.95;1778416;81;21154;-73
2023/12/18 00:17:26;;;;;;;75.55;36.30;;;;;;;4.18;100.00;100910.17;1778379;81;21143;-71
2023/12/18 00:19:55;;;;;;;64.30;32.08;;;;;;;4.18;100.00;100917.45;1747401;81;21115;-72
2023/12/18 00:22:24;;;;;;;52.03;26.45;;;;;;;4.17;100.00;100904.89;1778642;81;21166;-72
2023/12/18 00:24:52;;;;;;;38.28;19.73;;;;;;;4.17;100.00;100906.24;1748745;81;21135;-72
2023/12/18 00:27:20;;;;;;;32.73;17.73;;;;;;;4.16;100.00;100904.53;1778284;80;21582;-72
2023/12/18 00:29:49;;;;;;;39.08;18.67;;;;;;;4.17;100.00;100903.53;1778401;81;21131;-73
2023/12/18 00:32:18;;;;;;;37.08;20.30;;;;;;;4.19;100.00;100892.04;1778227;81;21660;-72
2023/12/18 00:34:46;;;;;;;44.80;23.47;;;;;;;4.20;100.00;100889.69;1761915;81;21207;-72
2023/12/18 00:37:15;;;;;;;34.33;18.62;;;;;;;4.21;100.00;100881.41;1751843;80;21544;-72
2023/12/18 00:39:43;;;;;;;31.87;15.95;;;;;;;4.23;100.00;100882.11;1751834;81;21105;-71
2023/12/18 00:42:12;;;;;;;30.97;16.32;;;;;;;4.23;100.00;100885.33;1751677;82;21128;-71
2023/12/18 00:44:40;;;;;;;42.50;21.12;;;;;;;4.22;100.00;100870.05;1751701;80;21125;-72
2023/12/18 00:47:09;;;;;;;35.80;17.12;;;;;;;4.22;100.00;100853.78;1752106;82;21141;-70
2023/12/18 00:49:37;;;;;;;40.38;21.50;;;;;;;4.23;100.00;100852.78;1751893;82;21192;-72
2023/12/18 00:52:06;;;;;;;36.03;19.23;;;;;;;4.23;100.00;100858.20;1751760;82;21768;-71
2023/12/18 00:54:34;;;;;;;38.78;19.95;;;;;;;4.22;100.00;100855.99;1751844;80;21155;-71
2023/12/18 00:57:02;;;;;;;34.65;17.42;;;;;;;4.24;100.00;100861.27;1751811;81;21604;-72
2023/12/18 00:59:31;;;;;;;34.53;17.77;;;;;;;4.24;100.00;100866.70;1752005;81;21128;-71
2023/12/18 01:01:59;;;;;;;33.85;16.73;;;;;;;4.22;100.00;100866.84;1751747;82;21164;-72
2023/12/18 01:04:27;;;;;;;38.20;18.00;;;;;;;4.23;100.00;100860.91;1751978;80;21192;-71
2023/12/18 01:06:56;;;;;;;32.33;17.20;;;;;;;4.25;100.00;100862.98;1751805;80;21611;-71
2023/12/18 01:09:24;;;;;;;34.33;17.27;;;;;;;4.25;100.00;100846.70;1746819;80;21144;-71
2023/12/18 01:11:52;;;;;;;39.18;18.82;;;;;;;4.27;100.00;100852.34;1743857;81;21589;-70
2023/12/18 01:14:21;;;;;;;37.67;18.15;;;;;;;4.30;100.00;100845.77;1744128;82;21113;-71
2023/12/18 01:16:51;;;;;;;36.75;18.40;;;;;;;4.30;100.00;100845.27;1743859;82;21604;-70
2023/12/18 01:19:19;;;;;;;40.30;18.80;;;;;;;4.32;100.00;100835.62;1743955;82;21117;-70
2023/12/18 01:21:48;;;;;;;43.68;22.13;;;;;;;4.31;100.00;100827.98;1743863;81;21576;-70
2023/12/18 01:24:17;;;;;;;38.92;18.87;;;;;;;4.33;100.00;100827.34;1743853;81;21188;-70
2023/12/18 01:26:46;;;;;;;39.88;19.52;;;;;;;4.34;100.00;100824.13;1743961;82;21121;-71
2023/12/18 01:29:14;;;;;;;44.18;22.37;;;;;;;4.34;100.00;100832.27;1744230;81;21116;-70
2023/12/18 01:31:42;;;;;;;46.18;22.45;;;;;;;4.36;100.00;100835.69;1743879;81;21153;-71
2023/12/18 01:34:11;;;;;;;35.52;18.25;;;;;;;4.39;100.00;100824.04;1755456;81;21147;-70
2023/12/18 01:36:39;;;;;;;41.33;19.67;;;;;;;4.39;100.00;100825.89;1774735;81;21135;-72
2023/12/18 01:39:08;;;;;;;45.45;20.80;;;;;;;4.41;100.00;100830.67;1774553;81;21214;-71
2023/12/18 01:41:36;;;;;;;38.78;19.25;;;;;;;4.42;100.00;100817.46;1774691;81;21457;-71
2023/12/18 01:44:05;;;;;;;51.20;25.02;;;;;;;4.44;100.00;100808.67;1774788;81;21084;-70
2023/12/18 01:46:35;;;;;;;55.83;26.68;;;;;;;4.44;100.00;100800.53;1774770;81;21120;-70
2023/12/18 01:49:04;;;;;;;44.83;22.32;;;;;;;4.43;100.00;100801.53;1774679;80;21576;-71
2023/12/18 01:51:33;;;;;;;53.80;23.25;;;;;;;4.43;100.00;100796.11;1774543;79;21131;-70
2023/12/18 01:54:02;;;;;;;68.25;34.18;;;;;;;4.44;100.00;100786.47;1727059;81;21115;-70
2023/12/18 01:56:30;;;;;;;62.73;30.55;;;;;;;4.46;100.00;100784.95;1774470;81;21187;-69
2023/12/18 01:58:59;;;;;;;63.38;30.65;;;;;;;4.48;100.00;100773.45;1774536;81;21168;-69
2023/12/18 02:01:28;;;;;;;60.67;28.98;;;;;;;4.50;100.00;100788.23;1774495;80;21601;-70
2023/12/18 02:03:56;;;;;;;54.90;25.37;;;;;;;4.51;100.00;100788.08;1774790;81;21096;-70
2023/12/18 02:06:25;;;;;;;62.45;26.95;;;;;;;4.50;100.00;100794.51;1774496;81;21571;-70
2023/12/18 02:08:55;;;;;;;63.28;28.83;;;;;;;4.51;100.00;100777.23;1778101;80;21099;-70
2023/12/18 02:11:24;;;;;;;58.70;27.60;;;;;;;4.52;100.00;100789.79;1788578;79;21099;-71
2023/12/18 02:13:52;;;;;;;60.12;28.50;;;;;;;4.53;100.00;100801.50;1788215;80;21563;-70
2023/12/18 02:16:22;;;;;;;69.10;28.95;;;;;;;4.53;100.00;100798.28;1788684;80;21107;-70
2023/12/18 02:18:50;;;;;;;59.67;27.02;;;;;;;4.52;100.00;100781.65;1788382;80;21574;-69
2023/12/18 02:21:20;;;;;;;66.02;27.87;;;;;;;4.53;100.00;100768.44;1788495;80;21111;-71
2023/12/18 02:23:49;;;;;;;72.10;32.42;;;;;;;4.54;100.00;100765.22;1788211;80;21146;-70
2023/12/18 02:26:17;;;;;;;73.35;32.88;;;;;;;4.54;100.00;100763.86;1788242;80;21174;-70
2023/12/18 02:28:45;;;;;;;76.07;32.93;;;;;;;4.53;100.00;100760.80;1788295;80;21558;-72
2023/12/18 02:31:14;;;;;;;77.45;33.80;;;;;;;4.52;100.00;100757.23;1788422;80;21253;-71
2023/12/18 02:33:48;;;;;;;67.27;30.17;;;;;;;4.56;100.00;100756.45;1787933;80;21119;-68
2023/12/18 02:36:13;;;;;;;61.50;27.55;;;;;;;4.56;100.00;100757.81;1785944;80;21095;-69
2023/12/18 02:38:41;;;;;;;68.87;27.75;;;;;;;4.57;100.00;100771.73;1786574;80;21122;-69
2023/12/18 02:41:10;;;;;;;74.53;31.87;;;;;;;4.56;100.00;100769.52;1719692;83;21155;-68
2023/12/18 02:43:38;;;;;;;68.72;29.92;;;;;;;4.56;100.00;100779.52;1719931;83;21198;-69
2023/12/18 02:46:07;;;;;;;67.80;27.75;;;;;;;4.54;100.00;100786.42;1732390;83;21131;-73
2023/12/18 02:48:35;;;;;;;63.25;24.80;;;;;;;4.54;100.00;100808.64;1719822;83;21643;-70
2023/12/18 02:51:05;;;;;;;62.75;25.70;;;;;;;4.56;100.00;100810.23;1719857;83;21833;-69
2023/12/18 02:53:33;;;;;;;59.10;24.02;;;;;;;4.56;100.00;100811.59;1732400;83;21186;-70
2023/12/18 02:56:02;;;;;;;56.37;24.00;;;;;;;4.55;100.00;100809.87;1693555;83;21644;-70
2023/12/18 02:58:30;;;;;;;53.20;22.10;;;;;;;4.57;100.00;100814.66;1719805;83;21123;-69
2023/12/18 03:00:58;;;;;;;56.48;24.77;;;;;;;4.58;100.00;100808.22;1732674;82;21159;-72
2023/12/18 03:03:27;;;;;;;53.52;22.32;;;;;;;4.58;100.00;100805.51;1719736;83;21647;-70
2023/12/18 03:05:55;;;;;;;57.25;23.95;;;;;;;4.59;100.00;100810.44;1719722;83;21139;-69
2023/12/18 03:08:24;;;;;;;57.05;24.05;;;;;;;4.59;100.00;100812.64;1732338;83;21151;-69
2023/12/18 03:10:52;;;;;;;55.75;23.18;;;;;;;4.59;100.00;100806.36;1714672;83;21197;-68
2023/12/18 03:13:20;;;;;;;49.50;22.98;;;;;;;4.59;100.00;100800.43;1781128;80;21170;-69
2023/12/18 03:15:48;;;;;;;52.38;22.77;;;;;;;4.59;100.00;100803.14;1781067;80;21154;-72
2023/12/18 03:18:17;;;;;;;53.20;22.40;;;;;;;4.60;100.00;100800.78;1781039;80;21151;-70
2023/12/18 03:20:46;;;;;;;49.80;21.70;;;;;;;4.60;100.00;100796.72;1714407;84;21162;-69
2023/12/18 03:23:14;;;;;;;53.55;22.27;;;;;;;4.62;100.00;100808.28;1781016;80;21170;-70
2023/12/18 03:25:43;;;;;;;54.48;23.30;;;;;;;4.65;100.00;100801.69;1781419;80;21126;-68
2023/12/18 03:28:13;;;;;;;49.77;22.30;;;;;;;4.66;100.00;100797.47;1781006;80;21163;-68
2023/12/18 03:30:41;;;;;;;56.20;22.90;;;;;;;4.67;100.00;100791.55;1781151;80;21587;-69
2023/12/18 03:33:10;;;;;;;55.35;22.52;;;;;;;4.66;100.00;100792.05;1781133;80;21253;-69
2023/12/18 03:35:38;;;;;;;47.80;21.23;;;;;;;4.66;100.00;100783.91;1782647;80;21621;-69
2023/12/18 03:38:07;;;;;;;50.23;22.82;;;;;;;4.65;100.00;100788.98;1782669;80;21633;-72
2023/12/18 03:40:35;;;;;;;56.18;23.80;;;;;;;4.64;100.00;100771.48;1782786;79;21111;-70
2023/12/18 03:43:05;;;;;;;55.75;24.25;;;;;;;4.63;100.00;100769.28;1783024;80;21103;-69
2023/12/18 03:45:33;;;;;;;68.00;30.57;;;;;;;4.63;100.00;100759.78;1782776;80;21080;-70
2023/12/18 03:48:01;;;;;;;64.20;29.77;;;;;;;4.64;100.00;100760.62;1782649;80;21116;-69
2023/12/18 03:50:30;;;;;;;67.17;28.07;;;;;;;4.63;100.00;100761.13;1782922;80;21151;-70
2023/12/18 03:52:59;;;;;;;61.92;26.10;;;;;;;4.61;100.00;100765.86;1782709;80;21131;-69
2023/12/18 03:55:27;;;;;;;64.05;28.38;;;;;;;4.61;100.00;100759.58;1782782;80;21155;-69
2023/12/18 03:57:56;;;;;;;64.62;29.80;;;;;;;4.60;100.00;100760.08;1782747;80;21127;-68
2023/12/18 04:00:24;;;;;;;61.58;26.15;;;;;;;4.60;100.00;100764.66;1782637;80;21134;-69
2023/12/18 04:02:53;;;;;;;62.15;27.02;;;;;;;4.60;100.00;100760.08;1782856;80;21130;-69
2023/12/18 04:05:23;;;;;;;69.62;31.93;;;;;;;4.62;100.00;100754.00;1782688;80;21135;-69
2023/12/18 04:07:51;;;;;;;68.67;28.95;;;;;;;4.64;100.00;100747.91;1782748;79;21598;-72
2023/12/18 04:10:19;;;;;;;61.18;25.60;;;;;;;4.63;100.00;100736.70;1785796;80;21582;-69
2023/12/18 04:12:48;;;;;;;61.90;27.25;;;;;;;4.59;100.00;100739.38;1788391;80;21147;-69
2023/12/18 04:15:16;;;;;;;65.32;27.05;;;;;;;4.60;100.00;100725.30;1770897;80;21185;-69
2023/12/18 04:17:45;;;;;;;75.67;32.88;;;;;;;4.61;100.00;100725.66;1788238;80;21661;-69
2023/12/18 04:20:14;;;;;;;72.47;31.60;;;;;;;4.62;100.00;100722.78;1788253;80;21254;-69
2023/12/18 04:22:42;;;;;;;72.35;32.08;;;;;;;4.59;100.00;100718.16;1788393;80;21116;-69
2023/12/18 04:25:11;;;;;;;78.47;36.63;;;;;;;4.61;100.00;100725.66;1788236;80;21150;-69
2023/12/18 04:27:39;;;;;;;77.70;32.75;;;;;;;4.64;100.00;100733.48;1788245;80;21139;-71
2023/12/18 04:30:10;;;;;;;73.62;33.35;;;;;;;4.64;100.00;100736.20;1788118;79;22236;-69
2023/12/18 04:32:38;;;;;;;61.55;26.40;;;;;;;4.64;100.00;100738.41;1788416;80;21169;-70
2023/12/18 04:35:07;;;;;;;58.68;23.73;;;;;;;4.63;100.00;100746.20;1787090;80;21114;-70
2023/12/18 04:37:36;;;;;;;62.15;25.48;;;;;;;4.60;100.00;100737.01;1786727;80;21142;-69
2023/12/18 04:40:05;;;;;;;72.82;33.80;;;;;;;4.57;100.00;100734.59;1719907;83;21127;-70
2023/12/18 04:42:34;;;;;;;72.30;32.35;;;;;;;4.55;100.00;100734.36;1719844;83;21632;-71
2023/12/18 04:45:03;;;;;;;76.02;31.62;;;;;;;4.53;100.00;100729.09;1732594;83;21563;-70
2023/12/18 04:47:33;;;;;;;102.53;37.90;;;;;;;4.54;100.00;100723.16;1719703;83;21134;-69
2023/12/18 04:50:02;;;;;;;87.27;36.90;;;;;;;4.54;100.00;100725.88;1719647;83;21130;-70
2023/12/18 04:52:30;;;;;;;92.62;39.80;;;;;;;4.55;100.00;100728.47;1732373;83;21137;-70
2023/12/18 04:54:59;;;;;;;96.80;40.75;;;;;;;4.57;100.00;100716.96;1719796;83;21221;-69
2023/12/18 04:57:27;;;;;;;85.47;38.67;;;;;;;4.58;100.00;100717.31;1719806;83;21167;-71
2023/12/18 04:59:56;;;;;;;93.95;37.55;;;;;;;4.59;100.00;100723.09;1732355;83;21124;-70
2023/12/18 05:02:24;;;;;;;74.07;28.50;;;;;;;4.59;100.00;100725.80;1719754;83;21186;-69
2023/12/18 05:04:53;;;;;;;80.67;30.23;;;;;;;4.59;100.00;100723.09;1719726;83;21135;-70
2023/12/18 05:07:21;;;;;;;86.63;31.30;;;;;;;4.58;100.00;100718.67;1732281;82;22196;-70
2023/12/18 05:09:49;;;;;;;87.42;31.82;;;;;;;4.54;100.00;100710.45;1716520;83;21148;-70
2023/12/18 05:12:18;;;;;;;87.78;34.92;;;;;;;4.50;100.00;100711.75;1772777;80;21103;-70
2023/12/18 05:14:47;;;;;;;85.03;32.75;;;;;;;4.50;100.00;100715.83;1772786;81;21123;-71
2023/12/18 05:17:15;;;;;;;73.57;28.67;;;;;;;4.51;100.00;100725.67;1706816;84;21183;-70
2023/12/18 05:19:43;;;;;;;71.28;26.48;;;;;;;4.51;100.00;100737.88;1772752;81;21120;-70
2023/12/18 05:22:12;;;;;;;69.42;27.27;;;;;;;4.51;100.00;100742.45;1772715;81;21607;-71
2023/12/18 05:24:40;;;;;;;70.90;25.65;;;;;;;4.48;100.00;100738.19;1772781;81;21127;-70
2023/12/18 05:27:09;;;;;;;69.50;25.57;;;;;;;4.47;100.00;100731.05;1706633;84;21128;-71
2023/12/18 05:29:37;;;;;;;73.35;30.17;;;;;;;4.48;100.00;100740.04;1772775;81;21175;-70
2023/12/18 05:32:06;;;;;;;72.40;24.35;;;;;;;4.48;100.00;100750.39;1772787;81;21637;-73
2023/12/18 05:34:35;;;;;;;65.87;24.55;;;;;;;4.49;100.00;100753.96;1706901;84;21151;-72
2023/12/18 05:37:04;;;;;;;65.75;24.50;;;;;;;4.49;100.00;100753.45;1772807;81;21623;-70
2023/12/18 05:39:32;;;;;;;65.90;24.02;;;;;;;4.49;100.00;100745.82;1772871;81;21127;-69
2023/12/18 05:42:00;;;;;;;64.32;24.02;;;;;;;4.47;100.00;100747.33;1686749;84;21108;-71
2023/12/18 05:44:29;;;;;;;65.80;24.85;;;;;;;4.48;100.00;100749.54;1772870;81;21119;-70
2023/12/18 05:46:57;;;;;;;60.23;22.55;;;;;;;4.46;100.00;100732.91;1772850;81;21131;-72
2023/12/18 05:49:27;;;;;;;54.33;21.85;;;;;;;4.48;100.00;100737.33;1772822;81;21147;-71
2023/12/18 05:51:56;;;;;;;61.25;23.87;;;;;;;4.46;100.00;100737.48;1751661;81;21111;-72
2023/12/18 05:54:25;;;;;;;64.80;26.48;;;;;;;4.46;100.00;100733.41;1772763;81;21135;-71
2023/12/18 05:56:54;;;;;;;56.53;22.35;;;;;;;4.46;100.00;100736.13;1772916;81;21528;-70
2023/12/18 05:59:22;;;;;;;58.02;23.22;;;;;;;4.48;100.00;100737.33;1772664;81;21185;-71
2023/12/18 06:01:50;;;;;;;55.98;21.60;;;;;;;4.48;100.00;100733.26;1706690;84;21598;-75
2023/12/18 06:04:19;;;;;;;55.00;24.37;;;;;;;4.49;100.00;100734.47;1772875;80;21149;-73
2023/12/18 06:06:48;;;;;;;61.08;24.52;;;;;;;4.50;100.00;100730.75;1772750;81;21132;-70
2023/12/18 06:09:17;;;;;;;62.48;25.40;;;;;;;4.52;100.00;100730.59;1706603;84;21123;-70
2023/12/18 06:11:46;;;;;;;61.75;25.35;;;;;;;4.54;100.00;100730.80;1772610;80;21151;-71
2023/12/18 06:14:14;;;;;;;62.90;25.23;;;;;;;4.55;100.00;100733.01;1706504;84;21171;-72
2023/12/18 06:16:42;;;;;;;78.07;30.80;;;;;;;4.57;100.00;100731.89;1772773;81;21123;-71
2023/12/18 06:19:10;;;;;;;56.80;25.02;;;;;;;4.58;100.00;100720.02;1706633;84;21603;-71
2023/12/18 06:21:41;;;;;;;62.62;25.35;;;;;;;4.60;100.00;100729.38;1772953;81;21162;-71
2023/12/18 06:24:10;;;;;;;83.00;32.30;;;;;;;4.59;100.00;100724.45;1772693;81;21187;-71
2023/12/18 06:26:38;;;;;;;60.83;26.25;;;;;;;4.60;100.00;100733.44;1751294;81;21494;-71
2023/12/18 06:29:06;;;;;;;64.00;26.95;;;;;;;4.58;100.00;100723.24;1706798;84;21163;-72
2023/12/18 06:31:35;;;;;;;68.28;29.32;;;;;;;4.57;100.00;100714.75;1772872;81;21135;-70
2023/12/18 06:34:04;;;;;;;68.42;27.98;;;;;;;4.56;100.00;100712.54;1706708;84;21131;-73
2023/12/18 06:36:33;;;;;;;71.60;27.82;;;;;;;4.57;100.00;100719.67;1751626;81;21575;-70
2023/12/18 06:39:02;;;;;;;72.87;31.42;;;;;;;4.57;100.00;100704.75;1706886;84;21133;-71
2023/12/18 06:41:33;;;;;;;82.85;33.60;;;;;;;4.58;100.00;100698.82;1772961;81;21115;-71
2023/12/18 06:44:02;;;;;;;70.12;29.87;;;;;;;4.59;100.00;100704.59;1706615;84;21139;-72
2023/12/18 06:46:32;;;;;;;70.10;28.45;;;;;;;4.60;100.00;100699.52;1751868;81;21135;-71
2023/12/18 06:49:04;;;;;;;68.17;27.75;;;;;;;4.60;100.00;100694.95;1773032;81;21123;-73
2023/12/18 06:51:33;;;;;;;69.03;28.52;;;;;;;4.60;100.00;100691.38;1772709;81;21624;-72
2023/12/18 06:54:01;;;;;;;77.37;30.82;;;;;;;4.61;100.00;100701.23;1706692;84;21148;-72
2023/12/18 06:56:32;;;;;;;79.05;31.97;;;;;;;4.60;100.00;100697.66;1751476;81;21574;-72
2023/12/18 06:59:02;;;;;;;89.83;33.53;;;;;;;4.62;100.00;100709.72;1686221;84;21171;-72
2023/12/18 07:01:31;;;;;;;80.80;31.57;;;;;;;4.62;100.00;100709.72;1773005;81;21115;-70
2023/12/18 07:03:59;;;;;;;84.85;33.85;;;;;;;4.62;100.00;100716.50;1706640;84;21151;-73
2023/12/18 07:06:28;;;;;;;90.53;34.03;;;;;;;4.62;100.00;100713.29;1772913;81;21139;-72
2023/12/18 07:08:57;;;;;;;89.87;33.40;;;;;;;4.64;100.00;100713.14;1772858;81;21287;-70
2023/12/18 07:11:26;;;;;;;83.92;32.48;;;;;;;4.65;100.00;100714.34;1751380;81;21153;-72
2023/12/18 07:13:54;;;;;;;88.27;33.18;;;;;;;4.64;100.00;100707.20;1772995;81;21594;-72
2023/12/18 07:16:23;;;;;;;89.72;33.00;;;;;;;4.64;100.00;100715.34;1772784;81;21174;-71
2023/12/18 07:18:53;;;;;;;101.05;36.00;;;;;;;4.66;100.00;100708.41;1686958;84;21191;-72
2023/12/18 07:21:22;;;;;;;117.47;40.38;;;;;;;4.66;100.00;100712.48;1750465;81;21143;-70
2023/12/18 07:23:51;;;;;;;104.00;38.00;;;;;;;4.66;100.00;100717.91;1772797;81;21428;-72
2023/12/18 07:26:21;;;;;;;89.90;35.73;;;;;;;4.65;100.00;100715.70;1706601;84;21100;-70
2023/12/18 07:28:50;;;;;;;102.85;37.05;;;;;;;4.66;100.00;100719.27;1772940;81;21108;-71
2023/12/18 07:31:18;;;;;;;111.30;38.30;;;;;;;4.66;100.00;100724.19;1772890;81;21096;-70
2023/12/18 07:33:47;;;;;;;110.15;37.45;;;;;;;4.66;100.00;100721.48;1766857;81;21151;-71
2023/12/18 07:36:16;;;;;;;101.30;37.45;;;;;;;4.68;100.00;100724.89;1743912;81;21192;-72
2023/12/18 07:38:49;;;;;;;104.20;38.40;;;;;;;4.69;100.00;100719.81;1743860;81;21117;-71
2023/12/18 07:41:16;;;;;;;105.37;37.93;;;;;;;4.73;100.00;100725.80;1743817;81;21107;-72
2023/12/18 07:43:45;;;;;;;105.22;39.20;;;;;;;4.74;100.00;100731.58;1733778;81;21133;-71
2023/12/18 07:46:18;;;;;;;92.82;35.15;;;;;;;4.77;100.00;100744.34;1744075;81;21161;-71
2023/12/18 07:48:52;;;;;;;98.65;36.40;;;;;;;4.78;100.00;100746.55;1743928;81;21156;-71
2023/12/18 07:51:18;;;;;;;93.67;35.58;;;;;;;4.78;100.00;100744.69;1743881;81;21149;-71
2023/12/18 07:53:47;;;;;;;88.17;34.90;;;;;;;4.82;100.00;100743.88;1743805;81;21120;-72
2023/12/18 07:56:15;;;;;;;89.77;35.63;;;;;;;4.83;100.00;100744.23;1743866;81;21631;-72
2023/12/18 07:58:44;;;;;;;94.10;35.70;;;;;;;4.82;100.00;100748.45;1743926;81;21168;-71
2023/12/18 08:01:16;;;;;;;83.27;34.33;;;;;;;4.82;100.00;100735.73;1733538;81;21113;-71
2023/12/18 08:03:45;;;;;;;90.22;35.90;;;;;;;4.83;100.00;100736.59;1743841;81;21125;-71
2023/12/18 08:06:13;;;;;;;81.50;33.42;;;;;;;4.83;100.00;100731.16;1743822;81;21133;-71
2023/12/18 08:08:41;;;;;;;86.42;33.48;;;;;;;4.84;100.00;100739.66;1733788;82;21125;-71
2023/12/18 08:11:10;;;;;;;80.47;34.15;;;;;;;4.86;100.00;100742.57;1746859;81;21645;-71
2023/12/18 08:13:38;;;;;;;91.37;34.55;;;;;;;4.86;100.00;100734.93;1751943;82;21572;-70
2023/12/18 08:16:07;;;;;;;87.33;33.42;;;;;;;4.86;100.00;100732.22;1733087;81;21164;-74
2023/12/18 08:18:36;;;;;;;81.78;33.53;;;;;;;4.87;100.00;100727.14;1752006;80;21563;-71
2023/12/18 08:21:05;;;;;;;88.65;35.23;;;;;;;4.88;100.00;100732.92;1699287;81;21154;-71
2023/12/18 08:23:33;;;;;;;81.82;33.50;;;;;;;4.88;100.00;100720.20;1751851;82;21109;-71
2023/12/18 08:26:02;;;;;;;81.50;33.10;;;;;;;4.87;100.00;100726.63;1751824;82;21108;-71
2023/12/18 08:28:30;;;;;;;84.50;33.08;;;;;;;4.87;100.00;100721.70;1751718;82;21117;-71
2023/12/18 08:30:59;;;;;;;82.92;35.25;;;;;;;4.87;100.00;100723.92;1751737;81;21564;-72
2023/12/18 08:33:27;;;;;;;80.90;31.95;;;;;;;4.87;100.00;100729.84;1753885;80;21117;-72
2023/12/18 08:35:56;;;;;;;77.53;33.80;;;;;;;4.88;100.00;100726.13;1781000;80;21237;-72
2023/12/18 08:38:24;;;;;;;90.60;34.85;;;;;;;4.90;100.00;100725.47;1749877;80;21190;-71
2023/12/18 08:40:52;;;;;;;91.00;35.60;;;;;;;4.92;100.00;100727.03;1781170;80;21185;-71
2023/12/18 08:43:21;;;;;;;83.97;33.90;;;;;;;4.93;100.00;100719.73;1781044;80;21146;-71
2023/12/18 08:45:50;;;;;;;82.55;34.78;;;;;;;4.95;100.00;100724.51;1781134;80;21158;-73
2023/12/18 08:48:18;;;;;;;86.97;35.90;;;;;;;4.97;100.00;100727.92;1781210;80;21207;-72
2023/12/18 08:50:47;;;;;;;87.33;33.65;;;;;;;4.97;100.00;100732.85;1685333;84;21784;-72
2023/12/18 08:53:16;;;;;;;87.67;36.75;;;;;;;4.99;100.00;100729.98;1781118;80;21194;-72
2023/12/18 08:55:45;;;;;;;80.80;33.00;;;;;;;4.97;100.00;100738.28;1781031;80;21114;-72
2023/12/18 08:58:13;;;;;;;91.70;34.05;;;;;;;4.99;100.00;100735.41;1781100;80;21162;-72
2023/12/18 09:00:44;;;;;;;91.92;33.88;;;;;;;4.98;100.00;100738.63;1751700;80;21594;-73
2023/12/18 09:03:13;;;;;;;78.40;32.20;;;;;;;4.98;100.00;100736.42;1781085;80;21114;-71
2023/12/18 09:05:41;;;;;;;80.35;33.55;;;;;;;4.96;100.00;100730.29;1714409;84;21167;-69
2023/12/18 09:08:13;;;;;;;84.45;34.55;;;;;;;4.95;100.00;100734.86;1780819;80;21618;-72
2023/12/18 09:10:42;;;;;;;83.80;31.65;;;;;;;4.94;100.00;100732.30;1780549;80;21091;-69
2023/12/18 09:13:10;;;;;;;83.27;34.30;;;;;;;4.95;100.00;100730.80;1751059;81;21127;-69
2023/12/18 09:15:40;;;;;;;88.25;35.38;;;;;;;4.98;100.00;100732.34;1759590;80;21137;-69
2023/12/18 09:18:08;;;;;;;87.75;32.90;;;;;;;4.97;100.00;100732.00;1725504;81;21646;-70
2023/12/18 09:20:37;;;;;;;85.00;32.75;;;;;;;4.96;100.00;100723.50;1756731;81;21594;-69
2023/12/18 09:23:08;;;;;;;79.53;32.95;;;;;;;4.96;100.00;100718.07;1760864;79;21112;-68
2023/12/18 09:25:37;;;;;;;86.72;35.20;;;;;;;4.96;100.00;100730.29;1759696;79;21096;-70
2023/12/18 09:28:06;;;;;;;73.47;32.20;;;;;;;4.94;100.00;100723.66;1757378;81;21147;-68
2023/12/18 09:30:35;;;;;;;81.15;31.65;;;;;;;4.94;100.00;100719.58;1758276;81;21096;-70
2023/12/18 09:33:04;;;;;;;97.37;34.88;;;;;;;4.93;100.00;100723.80;1757261;81;21582;-69
2023/12/18 09:35:34;;;;;;;82.22;32.70;;;;;;;4.92;100.00;100724.81;1757155;81;21120;-69
2023/12/18 09:38:04;;;;;;;80.10;31.75;;;;;;;4.92;100.00;100724.81;1757126;81;21131;-70
2023/12/18 09:40:33;;;;;;;83.52;34.15;;;;;;;4.90;100.00;100715.47;1760808;80;21590;-69
2023/12/18 09:43:03;;;;;;;87.97;34.95;;;;;;;4.91;100.00;100720.39;1757279;81;21620;-70
2023/12/18 09:45:31;;;;;;;78.42;33.55;;;;;;;4.92;100.00;100716.17;1754882;81;21164;-68
2023/12/18 09:48:01;;;;;;;88.80;35.85;;;;;;;4.95;100.00;100717.22;1741687;81;21566;-71
2023/12/18 09:50:30;;;;;;;83.62;33.02;;;;;;;4.99;100.00;100725.41;1774162;81;21127;-72
2023/12/18 09:53:03;;;;;;;80.38;33.42;;;;;;;5.05;100.00;100722.08;1774412;81;21147;-71
2023/12/18 09:55:31;;;;;;;81.45;34.43;;;;;;;5.05;100.00;100719.36;1763701;81;21115;-69
2023/12/18 09:58:00;;;;;;;76.50;32.78;;;;;;;5.06;100.00;100721.06;1743792;81;21119;-74
2023/12/18 10:00:29;;;;;;;73.45;31.48;;;;;;;5.09;100.00;100729.41;1743842;81;21628;-70
2023/12/18 10:02:59;;;;;;;79.67;33.25;;;;;;;5.08;100.00;100726.34;1743691;82;21186;-70
2023/12/18 10:05:27;;;;;;;81.97;33.30;;;;;;;5.07;100.00;100721.41;1744001;81;21100;-67
2023/12/18 10:07:59;;;;;;;79.12;31.48;;;;;;;5.07;100.00;100717.34;1743888;81;21563;-67
2023/12/18 10:10:27;;;;;;;83.97;33.88;;;;;;;5.09;100.00;100717.19;1733539;82;21163;-67
2023/12/18 10:12:56;;;;;;;80.60;30.97;;;;;;;5.10;100.00;100715.67;1747999;81;21591;-66
2023/12/18 10:15:26;;;;;;;86.05;32.95;;;;;;;5.10;100.00;100719.75;1772495;81;21104;-68
2023/12/18 10:17:55;;;;;;;77.30;31.50;;;;;;;5.09;100.00;100709.89;1762520;81;21154;-68
2023/12/18 10:20:24;;;;;;;84.97;33.08;;;;;;;5.12;100.00;100716.02;1769858;80;21163;-67
2023/12/18 10:22:53;;;;;;;86.32;33.60;;;;;;;5.13;100.00;100721.30;1756552;81;21104;-66
2023/12/18 10:25:23;;;;;;;74.75;33.18;;;;;;;5.14;100.00;100713.50;1745035;81;21641;-69
2023/12/18 10:27:56;;;;;;;77.78;32.28;;;;;;;5.15;100.00;100719.78;1754720;81;21112;-67
2023/12/18 10:30:27;;;;;;;79.10;35.50;;;;;;;5.16;100.00;100703.34;1743851;80;21163;-68
2023/12/18 10:32:56;;;;;;;74.32;32.53;;;;;;;5.15;100.00;100708.42;1758799;81;21558;-67
2023/12/18 10:35:27;;;;;;;82.95;31.93;;;;;;;5.16;100.00;100707.41;1759259;81;21160;-68
2023/12/18 10:37:56;;;;;;;73.22;32.50;;;;;;;5.19;100.00;100701.66;1760385;81;21131;-67
2023/12/18 10:40:26;;;;;;;80.97;32.95;;;;;;;5.22;100.00;100700.03;1757198;81;21157;-70
2023/12/18 10:43:18;;;;;;;80.85;34.53;;;;;;;5.26;100.00;100701.92;1745959;81;21121;-68
2023/12/18 10:45:53;;;;;;;68.65;29.18;;;;;;;5.27;100.00;100708.56;1756364;81;21099;-70
2023/12/18 10:48:22;;;;;;;70.20;30.95;;;;;;;5.28;100.00;100704.84;1760468;81;21141;-67
2023/12/18 10:50:54;;;;;;;71.97;31.75;;;;;;;5.30;100.00;100703.32;1760753;79;21546;-68
2023/12/18 10:53:23;;;;;;;69.92;30.10;;;;;;;5.30;100.00;100704.68;1761883;81;21628;-68
2023/12/18 10:56:13;;;;;;;72.55;31.62;;;;;;;5.32;100.00;100708.95;1743137;81;21127;-70
2023/12/18 10:58:44;;;;;;;62.48;27.50;;;;;;;5.34;100.00;100702.85;1747216;81;21235;-66
2023/12/18 11:01:12;;;;;;;58.13;27.52;;;;;;;5.35;100.00;100700.98;1720244;82;21092;-68
2023/12/18 11:03:41;;;;;;;57.90;26.90;;;;;;;5.40;100.00;100703.58;1750463;81;21168;-68
2023/12/18 11:06:11;;;;;;;58.05;26.35;;;;;;;5.49;100.00;100711.80;1727588;82;21171;-68
2023/12/18 11:08:40;;;;;;;61.33;27.45;;;;;;;5.49;100.00;100713.16;1750481;82;21116;-68
2023/12/18 11:11:09;;;;;;;55.75;26.02;;;;;;;5.48;100.00;100716.89;1748312;82;21575;-66
2023/12/18 11:14:09;;;;;;;52.75;24.70;;;;;;;5.47;100.00;100711.11;1728642;82;21561;-66
2023/12/18 11:17:01;;;;;;;51.42;24.98;;;;;;;5.46;100.00;100706.17;1748052;82;21150;-67